createdAt,value
2019-05-26T00:01:51.299Z,26.27
2019-05-26T00:04:17.553Z,25.57
2019-05-26T00:06:45.656Z,25.80
2019-05-26T00:09:11.835Z,26.05
2019-05-26T00:11:38.088Z,25.64
2019-05-26T00:14:04.300Z,25.42
2019-05-26T00:16:30.681Z,25.69
2019-05-26T00:18:56.860Z,25.90
2019-05-26T00:21:24.603Z,25.64
2019-05-26T00:23:50.889Z,25.75
2019-05-26T00:26:17.183Z,25.38
2019-05-26T00:28:43.472Z,25.03
2019-05-26T00:31:09.654Z,26.23
2019-05-26T00:33:35.831Z,25.95
2019-05-26T00:36:02.161Z,26.65
2019-05-26T00:38:28.416Z,26.88
2019-05-26T00:40:54.611Z,26.98
2019-05-26T00:43:20.804Z,26.99
2019-05-26T00:45:47.085Z,27.29
2019-05-26T00:48:13.268Z,27.08
2019-05-26T00:50:39.564Z,26.63
2019-05-26T00:53:05.749Z,26.50
2019-05-26T00:55:31.915Z,27.00
2019-05-26T00:57:58.139Z,27.10
2019-05-26T01:00:41.959Z,26.83
2019-05-26T01:03:09.179Z,26.83
2019-05-26T01:05:35.457Z,27.02
2019-05-26T01:08:06.585Z,27.07
2019-05-26T01:10:32.602Z,26.62
2019-05-26T01:12:58.758Z,26.85
2019-05-26T01:15:24.945Z,26.86
2019-05-26T01:17:51.164Z,26.60
2019-05-26T01:20:17.433Z,26.53
2019-05-26T01:22:43.621Z,25.13
2019-05-26T01:25:10.216Z,25.72
2019-05-26T01:27:36.491Z,25.50
2019-05-26T01:30:05.411Z,25.81
2019-05-26T01:32:31.616Z,26.12
2019-05-26T01:34:57.781Z,25.54
2019-05-26T01:37:24.067Z,25.76
2019-05-26T01:39:50.276Z,25.87
2019-05-26T01:42:16.461Z,25.57
2019-05-26T01:44:42.766Z,25.59
2019-05-26T01:47:09.086Z,26.11
2019-05-26T01:49:35.247Z,25.94
2019-05-26T01:52:02.503Z,25.36
2019-05-26T01:54:28.955Z,25.62
2019-05-26T01:56:55.226Z,25.91
2019-05-26T01:59:21.386Z,26.24
2019-05-26T02:01:47.602Z,26.08
2019-05-26T02:04:13.762Z,25.73
2019-05-26T02:06:42.118Z,25.63
2019-05-26T02:09:08.651Z,25.85
2019-05-26T02:11:34.821Z,26.19
2019-05-26T02:14:01.117Z,26.19
2019-05-26T02:16:27.322Z,26.06
2019-05-26T02:18:53.580Z,25.68
2019-05-26T02:21:19.716Z,26.16
2019-05-26T02:23:46.058Z,25.77
2019-05-26T02:26:12.243Z,25.57
2019-05-26T02:28:38.426Z,24.73
2019-05-26T02:31:04.749Z,24.79
2019-05-26T02:33:30.943Z,25.10
2019-05-26T02:35:57.101Z,24.62
2019-05-26T02:38:26.247Z,25.25
2019-05-26T02:40:51.506Z,24.85
2019-05-26T02:43:17.892Z,24.47
2019-05-26T02:45:44.110Z,25.14
2019-05-26T02:48:10.263Z,25.12
2019-05-26T02:50:36.518Z,25.67
2019-05-26T02:53:02.818Z,26.22
2019-05-26T02:55:29.103Z,25.88
2019-05-26T02:57:55.251Z,26.68
2019-05-26T03:00:40.438Z,27.18
2019-05-26T03:03:07.519Z,27.72
2019-05-26T03:05:33.982Z,28.69
2019-05-26T03:08:01.686Z,29.63
2019-05-26T03:10:31.078Z,30.04
2019-05-26T03:13:00.448Z,30.12
2019-05-26T03:15:26.662Z,30.14
2019-05-26T03:17:53.149Z,30.47
2019-05-26T03:20:19.313Z,31.48
2019-05-26T03:22:47.832Z,32.72
2019-05-26T03:25:14.051Z,32.84
2019-05-26T03:27:40.512Z,34.18
2019-05-26T03:30:06.712Z,34.67
2019-05-26T03:32:33.014Z,35.20
2019-05-26T03:34:59.274Z,35.93
2019-05-26T03:37:25.482Z,36.83
2019-05-26T03:39:51.654Z,37.63
2019-05-26T03:42:17.817Z,38.71
2019-05-26T03:44:44.039Z,39.18
2019-05-26T03:47:10.231Z,39.15
2019-05-26T03:49:36.402Z,39.87
2019-05-26T03:52:02.609Z,40.49
2019-05-26T03:54:28.788Z,40.04
2019-05-26T03:56:54.983Z,40.42
2019-05-26T03:59:21.201Z,39.81
2019-05-26T04:01:47.345Z,39.54
2019-05-26T04:04:13.498Z,39.29
2019-05-26T04:06:39.713Z,38.59
2019-05-26T04:09:07.167Z,37.87
2019-05-26T04:11:33.391Z,39.22
2019-05-26T04:13:59.594Z,38.75
2019-05-26T04:16:25.783Z,38.70
2019-05-26T04:18:51.957Z,37.88
2019-05-26T04:21:18.149Z,39.77
2019-05-26T04:23:44.323Z,41.68
2019-05-26T04:26:10.478Z,42.42
2019-05-26T04:28:36.739Z,43.58
2019-05-26T04:31:03.325Z,45.31
2019-05-26T04:33:29.538Z,41.23
2019-05-26T04:35:55.721Z,41.23
2019-05-26T04:38:21.904Z,37.18
2019-05-26T04:40:48.048Z,36.23
2019-05-26T04:43:15.167Z,36.63
2019-05-26T04:45:41.731Z,36.24
2019-05-26T04:48:07.920Z,36.02
2019-05-26T04:50:34.093Z,36.06
2019-05-26T04:53:06.930Z,36.50
2019-05-26T04:55:28.368Z,37.61
2019-05-26T04:57:54.557Z,37.65
2019-05-26T05:00:20.835Z,37.49
2019-05-26T05:02:47.027Z,37.17
2019-05-26T05:05:13.309Z,38.62
2019-05-26T05:07:39.485Z,39.68
2019-05-26T05:10:05.739Z,40.14
2019-05-26T05:12:31.994Z,40.81
2019-05-26T05:14:58.286Z,38.88
2019-05-26T05:17:24.440Z,37.30
2019-05-26T05:19:50.768Z,37.83
2019-05-26T05:22:17.113Z,38.17
2019-05-26T05:24:43.352Z,39.26
2019-05-26T05:27:09.637Z,41.14
2019-05-26T05:29:35.823Z,40.70
2019-05-26T05:32:02.002Z,40.04
2019-05-26T05:34:28.222Z,38.52
2019-05-26T05:36:54.407Z,37.67
2019-05-26T05:39:20.563Z,38.68
2019-05-26T05:41:46.775Z,38.79
2019-05-26T05:44:12.951Z,38.49
2019-05-26T05:46:39.137Z,38.40
2019-05-26T05:49:05.349Z,38.37
2019-05-26T05:51:31.505Z,35.80
2019-05-26T05:53:57.808Z,35.71
2019-05-26T05:56:23.989Z,36.62
2019-05-26T05:58:50.182Z,37.03
2019-05-26T06:01:16.527Z,37.62
2019-05-26T06:03:42.743Z,37.47
2019-05-26T06:06:08.896Z,39.17
2019-05-26T06:08:35.073Z,38.24
2019-05-26T06:11:15.481Z,39.08
2019-05-26T06:13:29.446Z,40.01
2019-05-26T06:15:55.637Z,41.36
2019-05-26T06:18:21.841Z,41.74
2019-05-26T06:20:48.006Z,42.38
2019-05-26T06:23:14.194Z,39.00
2019-05-26T06:25:40.375Z,38.36
2019-05-26T06:28:06.651Z,38.61
2019-05-26T06:30:32.927Z,38.82
2019-05-26T06:32:59.128Z,40.40
2019-05-26T06:35:25.308Z,40.66
2019-05-26T06:37:51.577Z,39.10
2019-05-26T06:40:17.845Z,39.10
2019-05-26T06:42:44.104Z,38.52
2019-05-26T06:45:10.606Z,38.95
2019-05-26T06:47:36.794Z,38.83
2019-05-26T06:50:07.193Z,36.86
2019-05-26T06:52:33.376Z,38.23
2019-05-26T06:54:59.556Z,37.65
2019-05-26T06:57:25.745Z,36.88
2019-05-26T06:59:51.924Z,38.48
2019-05-26T07:02:18.115Z,38.19
2019-05-26T07:04:44.282Z,36.84
2019-05-26T07:07:10.463Z,36.36
2019-05-26T07:09:36.675Z,34.72
2019-05-26T07:12:02.931Z,34.15
2019-05-26T07:14:29.121Z,35.40
2019-05-26T07:16:55.318Z,37.27
2019-05-26T07:19:21.460Z,37.88
2019-05-26T07:21:47.734Z,38.45
2019-05-26T07:24:15.477Z,39.55
2019-05-26T07:26:41.629Z,37.99
2019-05-26T07:29:07.900Z,35.15
2019-05-26T07:31:34.714Z,37.23
2019-05-26T07:34:00.848Z,37.13
2019-05-26T07:36:27.137Z,35.19
2019-05-26T07:38:53.343Z,35.76
2019-05-26T07:41:19.509Z,35.87
2019-05-26T07:43:45.813Z,36.32
2019-05-26T07:46:12.013Z,35.35
2019-05-26T07:48:38.174Z,36.12
2019-05-26T07:51:04.348Z,37.09
2019-05-26T07:53:30.530Z,34.67
2019-05-26T07:55:56.708Z,34.91
2019-05-26T07:58:22.903Z,35.81
2019-05-26T08:00:49.104Z,35.49
2019-05-26T08:03:15.372Z,34.76
2019-05-26T08:05:41.662Z,34.77
2019-05-26T08:08:13.035Z,34.78
2019-05-26T08:10:35.936Z,34.88
2019-05-26T08:13:02.106Z,36.99
2019-05-26T08:15:29.441Z,37.18
2019-05-26T08:17:55.609Z,36.53
2019-05-26T08:20:22.098Z,34.45
2019-05-26T08:22:48.319Z,35.00
2019-05-26T08:25:14.480Z,34.20
2019-05-26T08:27:40.856Z,34.24
2019-05-26T08:30:07.612Z,33.77
2019-05-26T08:32:33.768Z,35.25
2019-05-26T08:34:59.970Z,36.30
2019-05-26T08:37:26.185Z,36.30
2019-05-26T08:39:52.343Z,36.18
2019-05-26T08:42:26.805Z,35.08
2019-05-26T08:44:46.623Z,34.91
2019-05-26T08:47:13.338Z,35.33
2019-05-26T08:49:39.503Z,35.98
2019-05-26T08:52:05.713Z,36.28
2019-05-26T08:54:31.893Z,35.95
2019-05-26T08:56:58.167Z,35.39
2019-05-26T08:59:24.503Z,35.31
2019-05-26T09:01:50.690Z,34.81
2019-05-26T09:04:16.863Z,35.45
2019-05-26T09:06:43.072Z,35.14
2019-05-26T09:09:09.233Z,35.33
2019-05-26T09:11:35.417Z,35.91
2019-05-26T09:14:01.603Z,35.81
2019-05-26T09:16:27.893Z,35.20
2019-05-26T09:18:54.070Z,36.53
2019-05-26T09:21:20.281Z,35.38
2019-05-26T09:23:46.564Z,36.63
2019-05-26T09:26:12.738Z,35.73
2019-05-26T09:28:39.014Z,35.76
2019-05-26T09:31:05.228Z,36.15
2019-05-26T09:33:31.426Z,34.80
2019-05-26T09:35:57.670Z,34.57
2019-05-26T09:38:23.872Z,35.92
2019-05-26T09:40:50.145Z,36.47
2019-05-26T09:43:16.864Z,37.15
2019-05-26T09:45:43.457Z,37.15
2019-05-26T09:48:09.620Z,35.29
2019-05-26T09:50:35.827Z,34.30
2019-05-26T09:53:01.992Z,34.59
2019-05-26T09:55:28.153Z,34.24
2019-05-26T09:57:54.370Z,35.80
2019-05-26T10:00:21.744Z,35.62
2019-05-26T10:02:47.940Z,37.04
2019-05-26T10:05:14.116Z,37.04
2019-05-26T10:07:40.293Z,35.40
2019-05-26T10:10:07.664Z,35.89
2019-05-26T10:12:33.889Z,36.66
2019-05-26T10:15:00.069Z,36.80
2019-05-26T10:17:26.300Z,34.56
2019-05-26T10:19:52.608Z,34.56
2019-05-26T10:22:18.779Z,33.70
2019-05-26T10:24:44.948Z,34.72
2019-05-26T10:27:11.317Z,35.51
2019-05-26T10:29:37.486Z,36.99
2019-05-26T10:32:03.780Z,36.30
2019-05-26T10:34:30.488Z,36.73
2019-05-26T10:36:56.868Z,36.88
2019-05-26T10:39:23.035Z,36.81
2019-05-26T10:41:49.284Z,37.26
2019-05-26T10:44:15.477Z,37.81
2019-05-26T10:46:41.647Z,38.35
2019-05-26T10:49:07.886Z,37.61
2019-05-26T10:51:34.122Z,37.37
2019-05-26T10:54:00.351Z,39.18
2019-05-26T10:56:26.682Z,39.45
2019-05-26T10:58:52.972Z,37.18
2019-05-26T11:01:19.127Z,36.03
2019-05-26T11:03:45.328Z,36.98
2019-05-26T11:06:11.519Z,36.98
2019-05-26T11:08:37.668Z,38.02
2019-05-26T11:11:03.970Z,37.98
2019-05-26T11:13:30.656Z,38.21
2019-05-26T11:15:56.882Z,37.83
2019-05-26T11:18:24.089Z,38.76
2019-05-26T11:20:50.265Z,39.22
2019-05-26T11:23:16.437Z,39.03
2019-05-26T11:25:42.638Z,38.84
2019-05-26T11:28:08.820Z,36.26
2019-05-26T11:30:34.986Z,37.92
2019-05-26T11:33:01.171Z,39.26
2019-05-26T11:35:27.355Z,39.84
2019-05-26T11:37:53.516Z,39.96
2019-05-26T11:40:20.026Z,37.57
2019-05-26T11:42:46.307Z,39.19
2019-05-26T11:45:12.870Z,39.64
2019-05-26T11:47:39.080Z,39.97
2019-05-26T11:50:07.263Z,38.61
2019-05-26T11:52:33.533Z,35.96
2019-05-26T11:54:59.769Z,35.95
2019-05-26T11:57:26.187Z,37.07
2019-05-26T11:59:52.409Z,38.32
2019-05-26T12:02:18.770Z,38.91
2019-05-26T12:04:45.147Z,36.63
2019-05-26T12:07:11.675Z,36.00
2019-05-26T12:09:38.069Z,36.42
2019-05-26T12:12:07.743Z,36.90
2019-05-26T12:14:35.650Z,36.90
2019-05-26T12:17:02.238Z,36.96
2019-05-26T12:19:29.574Z,36.39
2019-05-26T12:21:55.969Z,36.27
2019-05-26T12:24:23.550Z,36.57
2019-05-26T12:26:49.939Z,37.27
2019-05-26T12:29:18.072Z,37.23
2019-05-26T12:31:44.295Z,38.81
2019-05-26T12:34:10.475Z,39.55
2019-05-26T12:36:39.141Z,40.33
2019-05-26T12:39:07.460Z,40.40
2019-05-26T12:41:37.047Z,40.29
2019-05-26T12:44:01.706Z,37.88
2019-05-26T12:46:27.915Z,38.16
2019-05-26T12:48:54.108Z,36.72
2019-05-26T12:51:20.286Z,37.44
2019-05-26T12:53:46.476Z,38.65
2019-05-26T12:56:12.753Z,40.04
2019-05-26T12:58:38.931Z,40.18
2019-05-26T13:01:05.131Z,39.48
2019-05-26T13:03:31.306Z,38.95
2019-05-26T13:05:58.777Z,40.04
2019-05-26T13:08:24.996Z,40.75
2019-05-26T13:10:51.181Z,41.10
2019-05-26T13:13:17.334Z,40.33
2019-05-26T13:15:43.519Z,39.61
2019-05-26T13:18:09.706Z,40.39
2019-05-26T13:20:35.928Z,41.49
2019-05-26T13:23:02.134Z,40.90
2019-05-26T13:25:28.311Z,38.46
2019-05-26T13:27:54.465Z,39.95
2019-05-26T13:30:22.964Z,40.91
2019-05-26T13:32:49.246Z,40.64
2019-05-26T13:35:16.423Z,40.50
2019-05-26T13:37:42.617Z,39.18
2019-05-26T13:40:08.967Z,39.37
2019-05-26T13:42:35.147Z,40.32
2019-05-26T13:45:01.373Z,40.24
2019-05-26T13:47:27.517Z,38.65
2019-05-26T13:49:55.284Z,39.83
2019-05-26T13:52:21.779Z,39.90
2019-05-26T13:54:47.947Z,39.89
2019-05-26T13:57:14.218Z,39.77
2019-05-26T13:59:40.612Z,37.83
2019-05-26T14:02:06.782Z,39.03
2019-05-26T14:04:32.977Z,39.99
2019-05-26T14:06:59.188Z,40.49
2019-05-26T14:09:25.368Z,38.69
2019-05-26T14:11:51.555Z,37.94
2019-05-26T14:14:18.045Z,37.24
2019-05-26T14:16:45.320Z,38.39
2019-05-26T14:19:11.701Z,39.89
2019-05-26T14:21:38.980Z,40.70
2019-05-26T14:24:05.144Z,39.41
2019-05-26T14:26:31.302Z,39.75
2019-05-26T14:28:57.503Z,39.55
2019-05-26T14:31:23.679Z,39.85
2019-05-26T14:33:49.855Z,40.34
2019-05-26T14:36:16.045Z,40.68
2019-05-26T14:38:43.733Z,40.67
2019-05-26T14:41:10.091Z,41.04
2019-05-26T14:43:36.302Z,41.60
2019-05-26T14:46:02.479Z,41.09
2019-05-26T14:48:28.662Z,41.38
2019-05-26T14:50:54.864Z,41.63
2019-05-26T14:53:21.016Z,40.13
2019-05-26T14:55:47.189Z,39.09
2019-05-26T14:58:16.091Z,39.25
2019-05-26T15:00:41.533Z,39.65
2019-05-26T15:03:07.711Z,39.70
2019-05-26T15:05:33.907Z,39.44
2019-05-26T15:08:00.236Z,39.05
2019-05-26T15:10:26.415Z,39.09
2019-05-26T15:12:52.621Z,38.83
2019-05-26T15:15:19.583Z,38.30
2019-05-26T15:17:45.746Z,39.04
2019-05-26T15:20:12.863Z,39.11
2019-05-26T15:22:39.037Z,38.89
2019-05-26T15:25:05.918Z,38.21
2019-05-26T15:27:32.119Z,38.73
2019-05-26T15:29:58.288Z,37.58
2019-05-26T15:32:24.572Z,37.98
2019-05-26T15:34:51.684Z,37.58
2019-05-26T15:37:17.852Z,38.08
2019-05-26T15:39:44.031Z,37.89
2019-05-26T15:42:10.218Z,38.12
2019-05-26T15:44:36.397Z,38.83
2019-05-26T15:47:03.426Z,39.36
2019-05-26T15:49:29.655Z,38.13
2019-05-26T15:51:55.804Z,38.68
2019-05-26T15:54:22.071Z,38.15
2019-05-26T15:56:48.286Z,38.45
2019-05-26T15:59:14.442Z,37.95
2019-05-26T16:01:40.633Z,37.43
2019-05-26T16:04:06.963Z,36.97
2019-05-26T16:06:33.132Z,36.17
2019-05-26T16:08:59.298Z,36.58
2019-05-26T16:14:15.167Z,37.01
2019-05-26T16:16:43.595Z,36.84
2019-05-26T16:19:13.814Z,36.90
2019-05-26T16:21:39.979Z,36.90
2019-05-26T16:24:07.035Z,36.80
2019-05-26T16:26:33.228Z,36.29
2019-05-26T16:29:01.710Z,35.56
2019-05-26T16:31:27.914Z,35.16
2019-05-26T16:33:54.090Z,34.41
2019-05-26T16:36:21.365Z,34.41
2019-05-26T16:38:47.898Z,34.73
2019-05-26T16:41:14.080Z,35.10
2019-05-26T16:43:40.260Z,35.47
2019-05-26T16:46:06.576Z,35.13
2019-05-26T16:48:32.792Z,34.38
2019-05-26T16:50:59.157Z,34.01
2019-05-26T16:53:25.337Z,34.83
2019-05-26T16:55:51.517Z,35.17
2019-05-26T16:58:17.673Z,35.37
2019-05-26T17:00:43.997Z,35.58
2019-05-26T17:03:10.175Z,34.96
2019-05-26T17:05:36.335Z,35.10
2019-05-26T17:08:02.625Z,34.62
2019-05-26T17:10:28.804Z,35.02
2019-05-26T17:12:54.978Z,34.96
2019-05-26T17:15:21.316Z,35.33
2019-05-26T17:17:47.486Z,35.13
2019-05-26T17:20:13.855Z,34.65
2019-05-26T17:22:40.063Z,34.60
2019-05-26T17:25:07.049Z,34.68
2019-05-26T17:27:33.222Z,34.73
2019-05-26T17:29:59.416Z,34.42
2019-05-26T17:32:25.578Z,34.57
2019-05-26T17:34:51.760Z,34.16
2019-05-26T17:37:17.950Z,34.31
2019-05-26T17:39:44.136Z,34.36
2019-05-26T17:42:10.308Z,33.91
2019-05-26T17:44:36.508Z,33.59
2019-05-26T17:47:02.666Z,33.23
2019-05-26T17:49:28.850Z,32.92
2019-05-26T17:51:55.068Z,32.94
2019-05-26T17:54:21.231Z,33.06
2019-05-26T17:56:47.414Z,32.83
2019-05-26T17:59:13.813Z,32.53
2019-05-26T18:01:40.184Z,32.30
2019-05-26T18:04:06.464Z,32.07
2019-05-26T18:06:32.711Z,31.94
2019-05-26T18:08:59.011Z,31.79
2019-05-26T18:11:25.196Z,31.73
2019-05-26T18:13:51.545Z,32.00
2019-05-26T18:16:17.714Z,31.75
2019-05-26T18:18:43.874Z,31.44
2019-05-26T18:21:10.072Z,31.33
2019-05-26T18:23:36.362Z,31.56
2019-05-26T18:26:02.591Z,31.36
2019-05-26T18:28:28.778Z,31.77
2019-05-26T18:30:55.064Z,31.93
2019-05-26T18:33:21.356Z,32.20
2019-05-26T18:35:47.544Z,32.28
2019-05-26T18:38:13.742Z,32.24
2019-05-26T18:40:40.218Z,32.04
2019-05-26T18:43:06.409Z,31.62
2019-05-26T18:45:32.568Z,31.36
2019-05-26T18:48:03.200Z,31.40
2019-05-26T18:50:28.454Z,31.47
2019-05-26T18:52:54.748Z,31.53
2019-05-26T18:55:21.077Z,31.46
2019-05-26T18:57:47.390Z,31.18
2019-05-26T19:00:14.067Z,31.24
2019-05-26T19:02:40.364Z,31.37
2019-05-26T19:05:06.982Z,31.43
2019-05-26T19:07:33.147Z,31.46
2019-05-26T19:09:59.315Z,31.42
2019-05-26T19:12:25.627Z,31.40
2019-05-26T19:14:51.789Z,31.41
2019-05-26T19:17:18.570Z,31.39
2019-05-26T19:19:44.795Z,31.17
2019-05-26T19:22:10.951Z,31.30
2019-05-26T19:24:37.129Z,31.27
2019-05-26T19:27:03.543Z,31.22
2019-05-26T19:29:29.708Z,30.86
2019-05-26T19:31:55.903Z,31.01
2019-05-26T19:34:22.103Z,30.62
2019-05-26T19:36:48.296Z,30.68
2019-05-26T19:39:14.497Z,31.06
2019-05-26T19:41:41.498Z,31.11
2019-05-26T19:44:07.760Z,30.99
2019-05-26T19:46:33.943Z,30.86
2019-05-26T19:49:00.175Z,31.07
2019-05-26T19:51:26.341Z,30.97
2019-05-26T19:53:52.524Z,30.65
2019-05-26T19:56:18.732Z,29.56
2019-05-26T19:58:45.009Z,29.73
2019-05-26T20:01:11.200Z,29.31
2019-05-26T20:03:37.423Z,29.50
2019-05-26T20:06:03.692Z,29.86
2019-05-26T20:08:29.872Z,29.81
2019-05-26T20:10:56.092Z,29.56
2019-05-26T20:13:22.255Z,29.56
2019-05-26T20:15:48.428Z,29.68
2019-05-26T20:18:14.638Z,29.78
2019-05-26T20:20:40.802Z,30.09
2019-05-26T20:23:06.965Z,30.04
2019-05-26T20:25:33.174Z,30.15
2019-05-26T20:27:59.346Z,30.19
2019-05-26T20:30:25.502Z,30.00
2019-05-26T20:32:51.748Z,29.67
2019-05-26T20:35:18.007Z,29.46
2019-05-26T20:37:44.172Z,29.44
2019-05-26T20:40:11.186Z,29.33
2019-05-26T20:42:37.343Z,29.05
2019-05-26T20:45:27.931Z,28.47
2019-05-26T20:47:54.096Z,28.58
2019-05-26T20:50:29.055Z,27.65
2019-05-26T20:52:48.413Z,27.73
2019-05-26T20:55:14.547Z,27.54
2019-05-26T20:57:40.710Z,28.08
2019-05-26T21:00:10.554Z,27.79
2019-05-26T21:02:37.512Z,28.74
2019-05-26T21:05:05.109Z,27.92
2019-05-26T21:07:31.426Z,28.33
2019-05-26T21:09:57.598Z,28.57
2019-05-26T21:12:23.753Z,28.66
2019-05-26T21:14:50.074Z,29.24
2019-05-26T21:17:16.252Z,29.04
2019-05-26T21:19:42.421Z,28.84
2019-05-26T21:22:08.600Z,29.03
2019-05-26T21:24:34.790Z,29.39
2019-05-26T21:27:00.966Z,29.11
2019-05-26T21:29:27.206Z,29.36
2019-05-26T21:31:53.390Z,29.41
2019-05-26T21:34:19.853Z,29.26
2019-05-26T21:36:46.048Z,29.19
2019-05-26T21:39:12.231Z,29.22
2019-05-26T21:41:38.420Z,28.49
2019-05-26T21:44:04.618Z,28.14
2019-05-26T21:46:30.899Z,28.76
2019-05-26T21:48:57.192Z,28.53
2019-05-26T21:51:23.379Z,27.99
2019-05-26T21:53:49.562Z,28.17
2019-05-26T21:56:15.748Z,28.53
2019-05-26T21:58:41.942Z,28.84
2019-05-26T22:01:08.521Z,28.91
2019-05-26T22:03:34.710Z,28.63
2019-05-26T22:06:00.905Z,28.63
2019-05-26T22:08:27.090Z,28.57
2019-05-26T22:10:53.248Z,28.79
2019-05-26T22:13:19.461Z,28.39
2019-05-26T22:15:45.761Z,28.63
2019-05-26T22:18:12.005Z,28.55
2019-05-26T22:20:38.501Z,28.76
2019-05-26T22:23:04.989Z,28.84
2019-05-26T22:25:33.605Z,28.91
2019-05-26T22:28:01.155Z,28.74
2019-05-26T22:30:28.673Z,28.59
2019-05-26T22:32:54.884Z,28.72
2019-05-26T22:35:21.138Z,28.98
2019-05-26T22:37:47.317Z,28.58
2019-05-26T22:40:14.195Z,28.64
2019-05-26T22:42:42.520Z,28.72
2019-05-26T22:45:09.497Z,28.72
2019-05-26T22:47:35.763Z,28.94
2019-05-26T22:50:05.070Z,28.76
2019-05-26T22:52:31.421Z,28.77
2019-05-26T22:54:59.474Z,28.87
2019-05-26T22:57:25.735Z,28.87
2019-05-26T22:59:52.003Z,28.69
2019-05-26T23:02:18.190Z,28.31
2019-05-26T23:04:44.435Z,27.99
2019-05-26T23:07:10.714Z,28.19
2019-05-26T23:09:36.892Z,28.41
2019-05-26T23:12:03.184Z,28.33
2019-05-26T23:14:29.454Z,28.26
2019-05-26T23:16:55.640Z,28.30
2019-05-26T23:19:21.835Z,28.18
2019-05-26T23:21:48.014Z,28.22
2019-05-26T23:24:14.188Z,28.21
2019-05-26T23:26:40.399Z,28.14
2019-05-26T23:29:06.699Z,27.91
2019-05-26T23:31:32.852Z,28.03
2019-05-26T23:33:59.046Z,27.89
2019-05-26T23:36:25.241Z,28.02
2019-05-26T23:38:51.429Z,27.99
2019-05-26T23:41:17.612Z,28.00
2019-05-26T23:43:43.798Z,27.76
2019-05-26T23:46:09.977Z,27.82
2019-05-26T23:48:36.199Z,27.61
2019-05-26T23:51:02.465Z,27.77
2019-05-26T23:53:28.643Z,27.69
2019-05-26T23:55:54.834Z,27.33
2019-05-26T23:58:20.999Z,27.27
